createdAt,value
2018-06-11T00:00:35.521Z,100881.95
2018-06-11T00:03:10.720Z,100876.12
2018-06-11T00:05:45.589Z,100869.47
2018-06-11T00:08:20.738Z,100880.64
2018-06-11T00:10:55.689Z,100898.02
2018-06-11T00:13:30.153Z,100900.72
2018-06-11T00:16:05.298Z,100891.34
2018-06-11T00:18:39.904Z,100906.34
2018-06-11T00:21:15.026Z,100904.28
2018-06-11T00:23:49.497Z,100911.77
2018-06-11T00:26:24.193Z,100910.05
2018-06-11T00:28:58.429Z,100913.48
2018-06-11T00:31:33.562Z,100914.84
2018-06-11T00:34:08.180Z,100913.97
2018-06-11T00:36:43.172Z,100906.45
2018-06-11T00:39:18.457Z,100899.63
2018-06-11T00:41:53.509Z,100903.38
2018-06-11T00:44:28.957Z,100903.23
2018-06-11T00:47:03.530Z,100897.12
2018-06-11T00:49:38.149Z,100887.92
2018-06-11T00:52:13.450Z,100886.24
2018-06-11T00:54:48.623Z,100887.43
2018-06-11T00:57:23.322Z,100883.34
2018-06-11T00:59:58.153Z,100892.92
2018-06-11T01:02:34.064Z,100891.52
2018-06-11T01:05:09.688Z,100891.31
2018-06-11T01:07:44.848Z,100894.05
2018-06-11T01:10:19.334Z,100894.19
2018-06-11T01:12:54.434Z,100889.60
2018-06-11T01:15:29.170Z,100891.66
2018-06-11T01:18:04.221Z,100894.91
2018-06-11T01:20:39.466Z,100898.30
2018-06-11T01:23:14.793Z,100901.66
2018-06-11T01:25:49.514Z,100896.83
2018-06-11T01:28:24.714Z,100899.41
2018-06-11T01:31:00.600Z,100900.30
2018-06-11T01:33:36.048Z,100898.58
2018-06-11T01:36:11.565Z,100899.95
2018-06-11T01:38:46.105Z,100890.89
2018-06-11T01:41:20.858Z,100896.03
2018-06-11T01:43:55.937Z,100898.63
2018-06-11T01:46:31.021Z,100895.02
2018-06-11T01:49:05.941Z,100900.12
2018-06-11T01:51:41.320Z,100901.44
2018-06-11T01:54:15.998Z,100900.91
2018-06-11T01:56:51.393Z,100899.16
2018-06-11T01:59:25.886Z,100902.94
2018-06-11T02:02:00.282Z,100894.63
2018-06-11T02:04:35.931Z,100893.66
2018-06-11T02:07:10.884Z,100893.30
2018-06-11T02:09:45.522Z,100902.31
2018-06-11T02:12:21.504Z,100899.03
2018-06-11T02:14:56.304Z,100895.11
2018-06-11T02:17:31.074Z,100892.29
2018-06-11T02:20:06.090Z,100886.88
2018-06-11T02:22:41.116Z,100892.74
2018-06-11T02:25:15.433Z,100892.08
2018-06-11T02:27:50.448Z,100886.53
2018-06-11T02:30:24.723Z,100888.42
2018-06-11T02:32:59.046Z,100883.66
2018-06-11T02:35:34.081Z,100883.83
2018-06-11T02:38:08.291Z,100878.69
2018-06-11T02:40:43.288Z,100878.64
2018-06-11T02:43:18.492Z,100877.56
2018-06-11T02:45:53.131Z,100873.62
2018-06-11T02:48:28.397Z,100881.63
2018-06-11T02:51:02.917Z,100882.30
2018-06-11T02:53:37.898Z,100890.30
2018-06-11T02:56:13.400Z,100891.14
2018-06-11T02:58:48.055Z,100885.65
2018-06-11T03:01:22.950Z,100886.17
2018-06-11T03:03:57.816Z,100876.91
2018-06-11T03:06:32.113Z,100873.78
2018-06-11T03:09:07.590Z,100868.95
2018-06-11T03:11:42.531Z,100875.72
2018-06-11T03:14:17.444Z,100875.66
2018-06-11T03:16:52.509Z,100876.94
2018-06-11T03:19:27.419Z,100883.70
2018-06-11T03:22:01.834Z,100883.52
2018-06-11T03:24:36.796Z,100881.10
2018-06-11T03:27:12.098Z,100882.80
2018-06-11T03:29:47.273Z,100890.58
2018-06-11T03:32:22.469Z,100889.55
2018-06-11T03:34:57.554Z,100884.88
2018-06-11T03:37:32.240Z,100874.98
2018-06-11T03:40:07.341Z,100884.16
2018-06-11T03:42:42.184Z,100881.44
2018-06-11T03:45:17.390Z,100876.63
2018-06-11T03:47:52.884Z,100876.04
2018-06-11T03:50:28.457Z,100881.59
2018-06-11T03:53:02.982Z,100884.13
2018-06-11T03:55:37.913Z,100879.34
2018-06-11T03:58:12.633Z,100880.16
2018-06-11T04:00:47.772Z,100882.78
2018-06-11T04:03:22.797Z,100885.09
2018-06-11T04:05:58.033Z,100888.91
2018-06-11T04:08:34.129Z,100891.60
2018-06-11T04:11:08.731Z,100902.75
2018-06-11T04:13:45.286Z,100906.47
2018-06-11T04:16:21.343Z,100904.11
2018-06-11T04:18:56.125Z,100907.27
2018-06-11T04:21:30.789Z,100915.52
2018-06-11T04:24:05.745Z,100908.43
2018-06-11T04:26:40.886Z,100911.86
2018-06-11T04:29:15.407Z,100910.45
2018-06-11T04:31:50.714Z,100911.00
2018-06-11T04:34:25.833Z,100920.00
2018-06-11T04:37:00.613Z,100919.81
2018-06-11T04:39:35.456Z,100925.36
2018-06-11T04:42:10.907Z,100931.97
2018-06-11T04:44:45.782Z,100931.97
2018-06-11T04:47:20.780Z,100940.33
2018-06-11T04:49:55.709Z,100944.30
2018-06-11T04:52:30.941Z,100953.89
2018-06-11T04:55:05.693Z,100954.19
2018-06-11T04:57:40.685Z,100959.27
2018-06-11T05:00:16.418Z,100958.62
2018-06-11T05:02:50.894Z,100946.76
2018-06-11T05:05:25.706Z,100955.92
2018-06-11T05:08:00.540Z,100953.66
2018-06-11T05:10:35.885Z,100963.88
2018-06-11T05:13:10.722Z,100959.11
2018-06-11T05:15:45.565Z,100962.70
2018-06-11T05:18:20.506Z,100957.20
2018-06-11T05:20:55.443Z,100957.55
2018-06-11T05:23:30.462Z,100962.73
2018-06-11T05:26:05.445Z,100961.27
2018-06-11T05:28:40.797Z,100959.45
2018-06-11T05:31:15.678Z,100956.56
2018-06-11T05:33:51.043Z,100956.62
2018-06-11T05:36:26.445Z,100956.07
2018-06-11T05:39:01.369Z,100955.66
2018-06-11T05:41:36.605Z,100963.83
2018-06-11T05:44:11.365Z,100955.82
2018-06-11T05:46:46.214Z,100963.14
2018-06-11T05:49:21.218Z,100968.88
2018-06-11T05:51:56.228Z,100967.08
2018-06-11T05:54:30.782Z,100969.95
2018-06-11T05:57:05.929Z,100965.26
2018-06-11T05:59:41.001Z,100963.50
2018-06-11T06:02:16.053Z,100971.20
2018-06-11T06:04:51.253Z,100961.68
2018-06-11T06:07:25.995Z,100963.04
2018-06-11T06:10:00.963Z,100959.98
2018-06-11T06:12:35.258Z,100974.80
2018-06-11T06:15:09.878Z,100969.03
2018-06-11T06:17:44.375Z,100975.61
2018-06-11T06:20:18.938Z,100969.16
2018-06-11T06:22:53.708Z,100971.23
2018-06-11T06:25:28.637Z,100969.58
2018-06-11T06:28:04.007Z,100963.99
2018-06-11T06:30:39.552Z,100960.97
2018-06-11T06:33:14.949Z,100959.67
2018-06-11T06:35:49.710Z,100963.31
2018-06-11T06:38:24.674Z,100967.30
2018-06-11T06:40:59.817Z,100972.82
2018-06-11T06:43:34.249Z,100973.70
2018-06-11T06:46:08.465Z,100982.41
2018-06-11T06:48:43.597Z,100983.84
2018-06-11T06:51:17.797Z,100979.98
2018-06-11T06:53:52.398Z,100978.02
2018-06-11T06:56:26.842Z,100971.39
2018-06-11T06:59:01.989Z,100961.37
2018-06-11T07:01:36.509Z,100967.67
2018-06-11T07:04:11.648Z,100968.20
2018-06-11T07:06:46.960Z,100973.47
2018-06-11T07:09:21.497Z,100974.89
2018-06-11T07:11:56.354Z,100979.27
2018-06-11T07:14:30.613Z,100976.52
2018-06-11T07:17:05.528Z,100973.39
2018-06-11T07:19:40.534Z,100972.49
2018-06-11T07:22:15.865Z,100979.52
2018-06-11T07:24:50.601Z,100980.53
2018-06-11T07:27:25.941Z,100979.52
2018-06-11T07:30:00.445Z,100988.09
2018-06-11T07:32:35.043Z,100984.37
2018-06-11T07:35:09.505Z,100990.20
2018-06-11T07:37:44.746Z,100985.13
2018-06-11T07:40:19.829Z,100972.56
2018-06-11T07:42:54.629Z,100983.34
2018-06-11T07:45:29.407Z,100983.36
2018-06-11T07:48:04.377Z,100987.95
2018-06-11T07:50:39.717Z,100976.67
2018-06-11T07:53:14.265Z,100979.37
2018-06-11T07:55:48.765Z,100979.58
2018-06-11T07:58:24.008Z,100980.42
2018-06-11T08:00:59.437Z,100984.71
2018-06-11T08:03:33.973Z,100980.77
2018-06-11T08:06:08.692Z,100976.17
2018-06-11T08:08:43.804Z,100980.77
2018-06-11T08:11:18.922Z,100975.48
2018-06-11T08:13:53.615Z,100969.69
2018-06-11T08:16:28.390Z,100969.95
2018-06-11T08:19:03.162Z,100979.57
2018-06-11T08:21:37.861Z,100979.39
2018-06-11T08:24:12.025Z,100981.45
2018-06-11T08:26:47.050Z,100971.41
2018-06-11T08:29:21.951Z,100968.30
2018-06-11T08:31:57.067Z,100965.21
2018-06-11T08:34:32.501Z,100968.42
2018-06-11T08:37:07.379Z,100961.75
2018-06-11T08:39:43.010Z,100968.09
2018-06-11T08:42:17.686Z,100961.90
2018-06-11T08:44:52.005Z,100970.14
2018-06-11T08:47:26.764Z,100957.62
2018-06-11T08:50:01.435Z,100958.28
2018-06-11T08:52:36.698Z,100960.83
2018-06-11T08:55:11.861Z,100960.32
2018-06-11T08:57:46.989Z,100950.08
2018-06-11T09:00:21.910Z,100957.17
2018-06-11T09:02:57.321Z,100951.13
2018-06-11T09:05:32.434Z,100961.37
2018-06-11T09:08:07.788Z,100959.16
2018-06-11T09:10:42.344Z,100959.59
2018-06-11T09:13:16.965Z,100954.75
2018-06-11T09:15:52.429Z,100964.34
2018-06-11T09:18:27.173Z,100962.70
2018-06-11T09:21:01.923Z,100960.58
2018-06-11T09:23:36.658Z,100961.38
2018-06-11T09:26:11.859Z,100958.95
2018-06-11T09:28:47.078Z,100953.62
2018-06-11T09:31:21.517Z,100953.00
2018-06-11T09:33:56.785Z,100951.20
2018-06-11T09:36:31.422Z,100952.72
2018-06-11T09:39:08.446Z,100959.45
2018-06-11T09:41:42.668Z,100952.13
2018-06-11T09:44:17.267Z,100960.86
2018-06-11T09:46:52.500Z,100957.83
2018-06-11T09:49:27.495Z,100949.59
2018-06-11T09:52:02.261Z,100951.66
2018-06-11T09:54:37.077Z,100944.54
2018-06-11T09:57:11.613Z,100945.90
2018-06-11T09:59:46.665Z,100944.89
2018-06-11T10:02:22.924Z,100939.27
2018-06-11T10:04:57.160Z,100934.34
2018-06-11T10:07:31.839Z,100945.95
2018-06-11T10:10:07.268Z,100946.64
2018-06-11T10:12:41.867Z,100950.44
2018-06-11T10:15:17.185Z,100948.11
2018-06-11T10:17:52.546Z,100939.73
2018-06-11T10:20:27.933Z,100939.42
2018-06-11T10:23:02.605Z,100928.26
2018-06-11T10:25:36.985Z,100920.50
2018-06-11T10:28:11.669Z,100934.72
2018-06-11T10:30:46.724Z,100933.81
2018-06-11T10:33:21.790Z,100922.92
2018-06-11T10:35:56.777Z,100925.70
2018-06-11T10:38:31.731Z,100932.07
2018-06-11T10:41:06.561Z,100929.63
2018-06-11T10:43:41.594Z,100935.37
2018-06-11T10:46:16.533Z,100929.84
2018-06-11T10:48:51.989Z,100933.58
2018-06-11T10:51:26.770Z,100923.06
2018-06-11T10:54:01.348Z,100924.75
2018-06-11T10:56:35.966Z,100922.68
2018-06-11T10:59:10.956Z,100918.59
2018-06-11T11:01:45.326Z,100917.48
2018-06-11T11:04:20.193Z,100916.42
2018-06-11T11:06:55.238Z,100919.36
2018-06-11T11:09:30.201Z,100915.27
2018-06-11T11:12:04.943Z,100924.64
2018-06-11T11:14:40.034Z,100919.95
2018-06-11T11:17:15.270Z,100919.95
2018-06-11T11:19:49.934Z,100922.72
2018-06-11T11:22:25.043Z,100919.09
2018-06-11T11:25:00.260Z,100913.34
2018-06-11T11:27:35.381Z,100913.84
2018-06-11T11:30:10.454Z,100907.39
2018-06-11T11:32:45.209Z,100910.61
2018-06-11T11:35:20.202Z,100913.48
2018-06-11T11:37:54.845Z,100906.78
2018-06-11T11:40:30.299Z,100897.66
2018-06-11T11:43:04.873Z,100888.37
2018-06-11T11:45:39.609Z,100890.08
2018-06-11T11:48:14.373Z,100888.14
2018-06-11T11:50:49.564Z,100892.74
2018-06-11T11:53:24.178Z,100879.77
2018-06-11T11:55:58.697Z,100883.80
2018-06-11T11:58:33.668Z,100879.72
2018-06-11T12:01:08.369Z,100861.04
2018-06-11T12:03:43.116Z,100855.60
2018-06-11T12:06:18.053Z,100855.48
2018-06-11T12:08:53.325Z,100860.75
2018-06-11T12:11:27.770Z,100852.69
2018-06-11T12:14:03.223Z,100854.53
2018-06-11T12:16:38.432Z,100851.02
2018-06-11T12:19:13.703Z,100847.73
2018-06-11T12:21:48.735Z,100845.08
2018-06-11T12:24:23.589Z,100855.08
2018-06-11T12:26:58.886Z,100839.80
2018-06-11T12:29:33.893Z,100840.91
2018-06-11T12:32:08.929Z,100829.36
2018-06-11T12:34:43.683Z,100834.51
2018-06-11T12:37:18.077Z,100814.72
2018-06-11T12:39:53.330Z,100819.63
2018-06-11T12:42:28.481Z,100818.25
2018-06-11T12:45:03.429Z,100811.16
2018-06-11T12:47:39.013Z,100804.84
2018-06-11T12:50:14.278Z,100821.41
2018-06-11T12:52:48.989Z,100812.98
2018-06-11T12:55:23.773Z,100810.93
2018-06-11T12:57:58.714Z,100801.47
2018-06-11T13:00:33.440Z,100798.05
2018-06-11T13:03:08.065Z,100787.09
2018-06-11T13:05:43.632Z,100783.23
2018-06-11T13:08:18.096Z,100790.75
2018-06-11T13:10:53.353Z,100789.14
2018-06-11T13:13:28.743Z,100780.30
2018-06-11T13:16:03.483Z,100781.50
2018-06-11T13:18:38.154Z,100786.13
2018-06-11T13:21:12.973Z,100784.12
2018-06-11T13:23:48.049Z,100780.86
2018-06-11T13:26:22.487Z,100782.55
2018-06-11T13:28:57.741Z,100774.42
2018-06-11T13:31:32.162Z,100761.53
2018-06-11T13:34:07.201Z,100759.86
2018-06-11T13:36:42.627Z,100751.91
2018-06-11T13:39:17.781Z,100754.24
2018-06-11T13:41:52.818Z,100751.15
2018-06-11T13:44:27.658Z,100751.73
2018-06-11T13:47:02.485Z,100750.84
2018-06-11T13:49:36.702Z,100745.52
2018-06-11T13:52:12.005Z,100744.67
2018-06-11T13:54:46.317Z,100744.54
2018-06-11T13:57:21.502Z,100745.30
2018-06-11T13:59:57.085Z,100741.30
2018-06-11T14:02:31.841Z,100742.77
2018-06-11T14:05:06.965Z,100737.49
2018-06-11T14:07:42.035Z,100726.78
2018-06-11T14:10:16.990Z,100729.50
2018-06-11T14:12:51.968Z,100725.84
2018-06-11T14:15:27.145Z,100715.84
2018-06-11T14:18:02.170Z,100715.29
2018-06-11T14:20:37.242Z,100717.29
2018-06-11T14:23:12.304Z,100711.39
2018-06-11T14:25:47.286Z,100714.16
2018-06-11T14:28:22.100Z,100710.44
2018-06-11T14:30:56.670Z,100705.67
2018-06-11T14:33:31.894Z,100710.77
2018-06-11T14:36:06.987Z,100703.45
2018-06-11T14:38:41.298Z,100698.36
2018-06-11T14:43:57.855Z,100683.88
2018-06-11T14:46:32.358Z,100687.21
2018-06-11T14:49:07.729Z,100689.77
2018-06-11T14:51:42.098Z,100687.20
2018-06-11T14:54:16.874Z,100690.22
2018-06-11T14:56:51.793Z,100684.37
2018-06-11T14:59:26.665Z,100689.08
2018-06-11T15:02:02.089Z,100692.63
2018-06-11T15:04:36.673Z,100695.95
2018-06-11T15:07:11.473Z,100692.72
2018-06-11T15:09:46.172Z,100699.93
2018-06-11T15:12:21.542Z,100695.45
2018-06-11T15:14:55.818Z,100696.46
2018-06-11T15:17:30.366Z,100694.97
2018-06-11T15:20:05.553Z,100698.36
2018-06-11T15:22:40.657Z,100696.77
2018-06-11T15:25:15.601Z,100693.13
2018-06-11T15:27:50.442Z,100684.30
2018-06-11T15:30:25.475Z,100688.08
2018-06-11T15:33:00.202Z,100696.84
2018-06-11T15:35:35.099Z,100691.33
2018-06-11T15:38:09.333Z,100697.31
2018-06-11T15:40:44.070Z,100692.14
2018-06-11T15:43:19.333Z,100689.54
2018-06-11T15:45:53.791Z,100695.28
2018-06-11T15:48:28.590Z,100694.77
2018-06-11T15:51:02.889Z,100690.22
2018-06-11T15:53:38.323Z,100674.81
2018-06-11T15:56:13.450Z,100676.12
2018-06-11T15:58:48.608Z,100680.64
2018-06-11T16:01:23.206Z,100682.55
2018-06-11T16:03:58.082Z,100675.69
2018-06-11T16:06:33.061Z,100668.15
2018-06-11T16:09:08.326Z,100661.28
2018-06-11T16:11:43.075Z,100656.26
2018-06-11T16:14:18.197Z,100650.61
2018-06-11T16:16:53.226Z,100640.37
2018-06-11T16:19:28.073Z,100645.30
2018-06-11T16:22:02.593Z,100640.32
2018-06-11T16:24:37.585Z,100638.14
2018-06-11T16:27:12.546Z,100638.14
2018-06-11T16:29:47.665Z,100639.92
2018-06-11T16:32:22.697Z,100633.48
2018-06-11T16:34:58.067Z,100645.67
2018-06-11T16:37:32.491Z,100642.12
2018-06-11T16:40:07.048Z,100644.91
2018-06-11T16:42:41.561Z,100645.84
2018-06-11T16:45:16.793Z,100642.36
2018-06-11T16:47:51.737Z,100636.66
2018-06-11T16:50:26.155Z,100636.67
2018-06-11T16:53:01.079Z,100630.80
2018-06-11T16:55:35.600Z,100632.34
2018-06-11T16:58:10.856Z,100635.33
2018-06-11T17:00:45.672Z,100634.81
2018-06-11T17:03:20.650Z,100630.45
2018-06-11T17:05:55.685Z,100635.14
2018-06-11T17:08:29.960Z,100627.37
2018-06-11T17:11:05.080Z,100632.67
2018-06-11T17:13:39.528Z,100634.37
2018-06-11T17:16:14.536Z,100632.86
2018-06-11T17:18:49.177Z,100637.77
2018-06-11T17:21:24.055Z,100647.00
2018-06-11T17:23:58.291Z,100649.45
2018-06-11T17:26:33.376Z,100643.63
2018-06-11T17:29:07.697Z,100643.78
2018-06-11T17:31:42.426Z,100638.48
2018-06-11T17:34:17.857Z,100634.02
2018-06-11T17:36:53.014Z,100641.91
2018-06-11T17:39:28.034Z,100632.98
2018-06-11T17:42:03.074Z,100633.89
2018-06-11T17:44:38.104Z,100630.23
2018-06-11T17:47:13.014Z,100631.17
2018-06-11T17:49:47.510Z,100626.19
2018-06-11T17:52:23.021Z,100629.77
2018-06-11T17:54:57.418Z,100627.19
2018-06-11T17:57:31.765Z,100626.94
2018-06-11T18:00:06.800Z,100627.25
2018-06-11T18:02:41.754Z,100626.88
2018-06-11T18:05:16.478Z,100628.20
2018-06-11T18:07:51.610Z,100618.44
2018-06-11T18:10:26.837Z,100607.28
2018-06-11T18:13:01.773Z,100608.09
2018-06-11T18:15:36.873Z,100607.98
2018-06-11T18:21:09.358Z,100617.70
2018-06-11T18:23:44.205Z,100618.41
2018-06-11T18:26:18.467Z,100624.33
2018-06-11T18:28:53.656Z,100618.17
2018-06-11T18:31:28.665Z,100624.81
2018-06-11T18:34:03.893Z,100615.34
2018-06-11T18:36:38.985Z,100615.16
2018-06-11T18:39:14.358Z,100613.61
2018-06-11T18:41:50.150Z,100607.09
2018-06-11T18:44:25.071Z,100619.38
2018-06-11T18:47:00.280Z,100621.00
2018-06-11T18:49:35.121Z,100624.74
2018-06-11T18:52:10.232Z,100624.87
2018-06-11T18:54:45.508Z,100622.91
2018-06-11T18:57:20.197Z,100620.92
2018-06-11T18:59:55.255Z,100621.70
2018-06-11T19:02:30.168Z,100621.48
2018-06-11T19:05:05.056Z,100624.85
2018-06-11T19:07:40.280Z,100623.39
2018-06-11T19:10:15.237Z,100628.98
2018-06-11T19:12:50.357Z,100627.14
2018-06-11T19:15:25.579Z,100630.26
2018-06-11T19:18:00.211Z,100633.41
2018-06-11T19:20:35.312Z,100636.05
2018-06-11T19:23:10.359Z,100633.94
2018-06-11T19:25:45.072Z,100638.18
2018-06-11T19:28:19.684Z,100634.73
2018-06-11T19:30:54.084Z,100655.00
2018-06-11T19:33:28.417Z,100662.41
2018-06-11T19:36:02.825Z,100675.76
2018-06-11T19:38:37.955Z,100687.66
2018-06-11T19:41:13.048Z,100691.66
2018-06-11T19:43:48.136Z,100690.97
2018-06-11T19:46:23.390Z,100707.45
2018-06-11T19:48:57.753Z,100715.53
2018-06-11T19:51:33.032Z,100731.16
2018-06-11T19:54:08.256Z,100738.73
2018-06-11T19:56:43.198Z,100744.41
2018-06-11T19:59:18.040Z,100743.45
2018-06-11T20:01:52.256Z,100751.36
2018-06-11T20:04:26.687Z,100751.22
2018-06-11T20:07:01.127Z,100739.45
2018-06-11T20:09:36.009Z,100746.35
2018-06-11T20:12:11.389Z,100748.18
2018-06-11T20:14:45.981Z,100746.38
2018-06-11T20:17:20.872Z,100743.70
2018-06-11T20:19:55.404Z,100745.07
2018-06-11T20:22:29.947Z,100745.93
2018-06-11T20:25:05.377Z,100744.05
2018-06-11T20:27:40.398Z,100743.91
2018-06-11T20:30:14.884Z,100737.77
2018-06-11T20:32:50.393Z,100736.42
2018-06-11T20:35:24.806Z,100744.30
2018-06-11T20:37:59.908Z,100747.72
2018-06-11T20:40:34.753Z,100750.95
2018-06-11T20:43:09.535Z,100750.10
2018-06-11T20:45:44.213Z,100754.88
2018-06-11T20:48:19.488Z,100748.32
2018-06-11T20:50:54.503Z,100756.50
2018-06-11T20:53:29.608Z,100749.32
2018-06-11T20:56:05.025Z,100748.45
2018-06-11T20:58:40.540Z,100744.35
2018-06-11T21:01:16.627Z,100744.84
2018-06-11T21:03:51.215Z,100749.78
2018-06-11T21:06:25.865Z,100751.32
2018-06-11T21:09:01.331Z,100751.64
2018-06-11T21:11:36.167Z,100748.56
2018-06-11T21:14:11.504Z,100754.37
2018-06-11T21:16:46.909Z,100754.52
2018-06-11T21:19:21.544Z,100756.02
2018-06-11T21:21:55.999Z,100754.80
2018-06-11T21:24:30.681Z,100762.41
2018-06-11T21:27:05.876Z,100759.80
2018-06-11T21:29:41.421Z,100775.27
2018-06-11T21:32:18.047Z,100774.69
2018-06-11T21:34:53.020Z,100776.83
2018-06-11T21:37:28.425Z,100772.13
2018-06-11T21:40:03.481Z,100779.57
2018-06-11T21:42:38.269Z,100775.27
2018-06-11T21:45:13.277Z,100779.16
2018-06-11T21:47:47.642Z,100782.36
2018-06-11T21:50:22.149Z,100774.61
2018-06-11T21:52:56.796Z,100785.59
2018-06-11T21:55:31.128Z,100788.95
2018-06-11T21:58:06.252Z,100793.12
2018-06-11T22:00:40.967Z,100797.72
2018-06-11T22:03:16.558Z,100790.86
2018-06-11T22:05:51.244Z,100791.98
2018-06-11T22:08:25.504Z,100793.48
2018-06-11T22:11:00.405Z,100783.39
2018-06-11T22:13:35.269Z,100781.65
2018-06-11T22:16:10.462Z,100785.00
2018-06-11T22:18:44.865Z,100776.11
2018-06-11T22:21:19.304Z,100776.34
2018-06-11T22:23:53.633Z,100781.23
2018-06-11T22:26:27.992Z,100776.16
2018-06-11T22:29:02.597Z,100776.97
2018-06-11T22:31:37.113Z,100773.34
2018-06-11T22:34:11.669Z,100774.97
2018-06-11T22:36:46.443Z,100768.80
2018-06-11T22:39:21.000Z,100771.91
2018-06-11T22:41:55.697Z,100775.87
2018-06-11T22:44:30.936Z,100782.73
2018-06-11T22:47:06.161Z,100784.66
2018-06-11T22:49:41.135Z,100780.04
2018-06-11T22:52:15.800Z,100784.75
2018-06-11T22:54:50.593Z,100778.93
2018-06-11T22:57:25.484Z,100782.77
2018-06-11T22:59:59.836Z,100781.73
2018-06-11T23:02:34.785Z,100785.81
2018-06-11T23:05:09.060Z,100780.22
2018-06-11T23:07:43.344Z,100776.59
2018-06-11T23:10:18.496Z,100780.66
2018-06-11T23:12:53.053Z,100778.39
2018-06-11T23:15:27.300Z,100780.70
2018-06-11T23:18:02.496Z,100779.80
2018-06-11T23:20:37.684Z,100775.88
2018-06-11T23:23:12.717Z,100772.30
2018-06-11T23:25:47.637Z,100767.86
2018-06-11T23:28:22.893Z,100772.09
2018-06-11T23:30:57.145Z,100768.82
2018-06-11T23:33:31.541Z,100770.46
2018-06-11T23:36:07.081Z,100775.53
2018-06-11T23:38:41.922Z,100768.19
2018-06-11T23:41:16.845Z,100765.55
2018-06-11T23:43:51.712Z,100767.87
2018-06-11T23:46:26.197Z,100770.17
2018-06-11T23:49:00.701Z,100771.45
2018-06-11T23:51:35.713Z,100766.47
2018-06-11T23:54:10.177Z,100762.70
2018-06-11T23:56:45.046Z,100760.99
2018-06-11T23:59:19.236Z,100768.89
